sensor_id;sensor_type;location;lat;lon;timestamp;pressure;altitude;pressure_sealevel;temperature;humidity
43838;BME280;65998;46.256;7.534;2022-12-18T11:52:04;87793.28;;;0.68;100.00
43838;BME280;65998;46.256;7.534;2022-12-18T12:36:34;87757.56;;;0.72;100.00
43838;BME280;65998;46.256;7.534;2022-12-18T12:46:12;87736.63;;;0.72;100.00
43838;BME280;65998;46.256;7.534;2022-12-18T12:49:02;87748.50;;;0.83;100.00
43838;BME280;65998;46.256;7.534;2022-12-18T12:52:03;87749.25;;;0.85;100.00
43838;BME280;65998;46.256;7.534;2022-12-18T12:55:36;87739.97;;;0.90;99.61
43838;BME280;65998;46.256;7.534;2022-12-18T12:58:33;87743.50;;;0.95;100.00
43838;BME280;65998;46.256;7.534;2022-12-18T13:13:04;87731.47;;;1.18;100.00
43838;BME280;65998;46.256;7.534;2022-12-18T13:16:06;87727.16;;;1.11;100.00
43838;BME280;65998;46.256;7.534;2022-12-18T13:18:35;87740.06;;;1.12;99.82
43838;BME280;65998;46.256;7.534;2022-12-18T13:21:36;87748.88;;;1.13;100.00
43838;BME280;65998;46.256;7.534;2022-12-18T13:24:15;87741.19;;;1.05;99.77
43838;BME280;65998;46.256;7.534;2022-12-18T13:26:46;87743.72;;;1.01;100.00
43838;BME280;65998;46.256;7.534;2022-12-18T13:29:45;87731.28;;;0.94;96.36
43838;BME280;65998;46.256;7.534;2022-12-18T13:32:29;87743.88;;;1.05;95.58
43838;BME280;65998;46.256;7.534;2022-12-18T13:37:59;87747.34;;;1.08;85.71
43838;BME280;65998;46.256;7.534;2022-12-18T13:48:22;87749.44;;;1.29;100.00
43838;BME280;65998;46.256;7.534;2022-12-18T13:51:23;87734.44;;;1.26;100.00
43838;BME280;65998;46.256;7.534;2022-12-18T13:56:49;87749.16;;;1.41;100.00
43838;BME280;65998;46.256;7.534;2022-12-18T13:59:38;87749.72;;;1.37;100.00
43838;BME280;65998;46.256;7.534;2022-12-18T14:02:21;87751.84;;;1.41;100.00
43838;BME280;65998;46.256;7.534;2022-12-18T14:04:56;87754.44;;;1.37;100.00
43838;BME280;65998;46.256;7.534;2022-12-18T14:07:29;87763.94;;;1.38;100.00
43838;BME280;65998;46.256;7.534;2022-12-18T14:10:04;87763.59;;;1.27;100.00
43838;BME280;65998;46.256;7.534;2022-12-18T14:12:44;87765.41;;;1.21;100.00
43838;BME280;65998;46.256;7.534;2022-12-18T14:15:41;87762.13;;;1.05;100.00
43838;BME280;65998;46.256;7.534;2022-12-18T14:18:30;87759.47;;;0.87;100.00
43838;BME280;65998;46.256;7.534;2022-12-18T14:21:29;87762.34;;;0.73;100.00
43838;BME280;65998;46.256;7.534;2022-12-18T14:24:24;87758.59;;;0.62;100.00
43838;BME280;65998;46.256;7.534;2022-12-18T14:27:27;87759.47;;;0.49;100.00
43838;BME280;65998;46.256;7.534;2022-12-18T14:30:50;87769.28;;;0.41;100.00
43838;BME280;65998;46.256;7.534;2022-12-18T14:33:51;87756.84;;;0.34;100.00
43838;BME280;65998;46.256;7.534;2022-12-18T14:36:27;87765.28;;;0.24;100.00
43838;BME280;65998;46.256;7.534;2022-12-18T14:39:27;87758.16;;;0.15;100.00
43838;BME280;65998;46.256;7.534;2022-12-18T14:42:25;87756.63;;;0.10;99.89
43838;BME280;65998;46.256;7.534;2022-12-18T14:45:33;87754.22;;;0.00;89.11
43838;BME280;65998;46.256;7.534;2022-12-18T14:54:48;87768.78;;;-0.07;75.74
43838;BME280;65998;46.256;7.534;2022-12-18T14:57:42;87770.19;;;-0.06;74.59
43838;BME280;65998;46.256;7.534;2022-12-18T15:00:45;87761.38;;;-0.07;83.32
43838;BME280;65998;46.256;7.534;2022-12-18T15:03:45;87770.09;;;-0.08;74.61
43838;BME280;65998;46.256;7.534;2022-12-18T15:17:59;87768.34;;;-0.02;73.59
43838;BME280;65998;46.256;7.534;2022-12-18T15:21:21;87770.72;;;-0.10;70.88
43838;BME280;65998;46.256;7.534;2022-12-18T15:29:00;87771.56;;;-0.23;73.81
43838;BME280;65998;46.256;7.534;2022-12-18T15:38:14;87776.72;;;-0.29;100.00
43838;BME280;65998;46.256;7.534;2022-12-18T15:41:18;87785.81;;;-0.38;82.82
43838;BME280;65998;46.256;7.534;2022-12-18T15:47:27;87778.84;;;-0.43;77.05
43838;BME280;65998;46.256;7.534;2022-12-18T15:52:59;87785.09;;;-0.39;100.00
43838;BME280;65998;46.256;7.534;2022-12-18T15:56:07;87777.47;;;-0.44;98.57
43838;BME280;65998;46.256;7.534;2022-12-18T15:58:55;87788.97;;;-0.44;83.05
43838;BME280;65998;46.256;7.534;2022-12-18T16:01:29;87767.72;;;-0.51;84.09
43838;BME280;65998;46.256;7.534;2022-12-18T16:03:58;87786.88;;;-0.45;100.00
43838;BME280;65998;46.256;7.534;2022-12-18T16:06:25;87777.41;;;-0.62;94.94
43838;BME280;65998;46.256;7.534;2022-12-18T16:08:52;87790.75;;;-0.66;82.21
43838;BME280;65998;46.256;7.534;2022-12-18T16:11:47;87789.00;;;-0.59;76.87
43838;BME280;65998;46.256;7.534;2022-12-18T16:14:54;87800.03;;;-0.53;93.41
43838;BME280;65998;46.256;7.534;2022-12-18T16:17:20;87790.34;;;-0.43;100.00
43838;BME280;65998;46.256;7.534;2022-12-18T16:23:01;87785.84;;;-0.54;73.53
43838;BME280;65998;46.256;7.534;2022-12-18T16:25:31;87780.16;;;-0.44;75.26
43838;BME280;65998;46.256;7.534;2022-12-18T16:27:57;87796.41;;;-0.26;79.32
43838;BME280;65998;46.256;7.534;2022-12-18T16:30:34;87792.94;;;-0.11;73.74
43838;BME280;65998;46.256;7.534;2022-12-18T16:33:25;87800.66;;;-0.21;68.12
43838;BME280;65998;46.256;7.534;2022-12-18T16:39:27;87802.38;;;-0.46;71.63
43838;BME280;65998;46.256;7.534;2022-12-18T16:41:55;87796.66;;;-0.54;84.02
43838;BME280;65998;46.256;7.534;2022-12-18T16:44:22;87787.69;;;-0.58;100.00
43838;BME280;65998;46.256;7.534;2022-12-18T16:46:48;87798.69;;;-0.70;85.06
43838;BME280;65998;46.256;7.534;2022-12-18T16:49:38;87794.59;;;-0.71;100.00
43838;BME280;65998;46.256;7.534;2022-12-18T16:52:30;87806.66;;;-0.56;100.00
43838;BME280;65998;46.256;7.534;2022-12-18T16:55:33;87792.22;;;-0.63;100.00
43838;BME280;65998;46.256;7.534;2022-12-18T16:58:14;87791.94;;;-0.53;100.00
43838;BME280;65998;46.256;7.534;2022-12-18T17:00:40;87784.53;;;-0.53;100.00
43838;BME280;65998;46.256;7.534;2022-12-18T17:03:13;87789.97;;;-0.69;95.57
43838;BME280;65998;46.256;7.534;2022-12-18T17:06:16;87789.47;;;-0.81;80.18
43838;BME280;65998;46.256;7.534;2022-12-18T17:08:43;87791.38;;;-0.83;81.06
43838;BME280;65998;46.256;7.534;2022-12-18T17:11:09;87786.31;;;-0.75;100.00
43838;BME280;65998;46.256;7.534;2022-12-18T17:17:21;87786.00;;;-0.83;87.38
43838;BME280;65998;46.256;7.534;2022-12-18T17:20:01;87782.50;;;-0.86;83.33
43838;BME280;65998;46.256;7.534;2022-12-18T17:22:27;87787.22;;;-0.86;86.04
43838;BME280;65998;46.256;7.534;2022-12-18T17:24:56;87782.25;;;-0.92;80.74
43838;BME280;65998;46.256;7.534;2022-12-18T17:27:22;87794.44;;;-0.91;75.74
43838;BME280;65998;46.256;7.534;2022-12-18T17:29:49;87791.47;;;-0.81;96.84
43838;BME280;65998;46.256;7.534;2022-12-18T17:32:16;87799.03;;;-0.78;100.00
43838;BME280;65998;46.256;7.534;2022-12-18T17:34:42;87793.63;;;-0.78;100.00
43838;BME280;65998;46.256;7.534;2022-12-18T17:37:08;87799.66;;;-0.79;100.00
43838;BME280;65998;46.256;7.534;2022-12-18T17:39:35;87789.28;;;-0.85;100.00
43838;BME280;65998;46.256;7.534;2022-12-18T17:42:00;87799.47;;;-0.83;78.28
43838;BME280;65998;46.256;7.534;2022-12-18T17:44:27;87807.81;;;-0.77;74.99
43838;BME280;65998;46.256;7.534;2022-12-18T17:46:54;87808.84;;;-0.69;100.00
43838;BME280;65998;46.256;7.534;2022-12-18T17:49:21;87801.81;;;-0.76;95.08
43838;BME280;65998;46.256;7.534;2022-12-18T17:51:47;87805.13;;;-0.77;82.42
43838;BME280;65998;46.256;7.534;2022-12-18T17:54:13;87809.31;;;-0.74;77.15
43838;BME280;65998;46.256;7.534;2022-12-18T17:56:39;87802.16;;;-0.68;97.95
43838;BME280;65998;46.256;7.534;2022-12-18T17:59:06;87809.38;;;-0.56;100.00
43838;BME280;65998;46.256;7.534;2022-12-18T18:01:32;87807.56;;;-0.68;84.98
43838;BME280;65998;46.256;7.534;2022-12-18T18:03:58;87797.28;;;-0.71;100.00
43838;BME280;65998;46.256;7.534;2022-12-18T18:06:25;87810.50;;;-0.61;100.00
43838;BME280;65998;46.256;7.534;2022-12-18T18:08:52;87812.06;;;-0.56;100.00
43838;BME280;65998;46.256;7.534;2022-12-18T18:11:21;87809.13;;;-0.62;100.00
43838;BME280;65998;46.256;7.534;2022-12-18T18:14:12;87802.84;;;-0.67;100.00
43838;BME280;65998;46.256;7.534;2022-12-18T18:16:41;87812.16;;;-0.70;91.71
43838;BME280;65998;46.256;7.534;2022-12-18T18:19:16;87816.63;;;-0.77;82.67
43838;BME280;65998;46.256;7.534;2022-12-18T18:21:44;87813.31;;;-0.75;71.59
43838;BME280;65998;46.256;7.534;2022-12-18T18:24:13;87812.63;;;-0.76;71.59
43838;BME280;65998;46.256;7.534;2022-12-18T18:26:40;87813.47;;;-0.71;68.54
43838;BME280;65998;46.256;7.534;2022-12-18T18:29:17;87820.59;;;-0.62;64.30
43838;BME280;65998;46.256;7.534;2022-12-18T18:31:44;87819.28;;;-0.61;66.49
43838;BME280;65998;46.256;7.534;2022-12-18T18:34:18;87805.38;;;-0.71;73.37
43838;BME280;65998;46.256;7.534;2022-12-18T18:36:45;87816.19;;;-0.71;69.23
43838;BME280;65998;46.256;7.534;2022-12-18T18:39:12;87821.75;;;-0.67;64.57
43838;BME280;65998;46.256;7.534;2022-12-18T18:41:38;87824.09;;;-0.59;65.86
43838;BME280;65998;46.256;7.534;2022-12-18T18:44:04;87825.47;;;-0.58;66.27
43838;BME280;65998;46.256;7.534;2022-12-18T18:46:30;87824.00;;;-0.61;70.45
43838;BME280;65998;46.256;7.534;2022-12-18T18:48:56;87825.66;;;-0.70;74.09
43838;BME280;65998;46.256;7.534;2022-12-18T18:51:22;87820.19;;;-0.72;100.00
43838;BME280;65998;46.256;7.534;2022-12-18T18:53:51;87821.13;;;-0.66;100.00
43838;BME280;65998;46.256;7.534;2022-12-18T18:56:20;87824.00;;;-0.61;100.00
43838;BME280;65998;46.256;7.534;2022-12-18T18:58:47;87824.84;;;-0.41;100.00
43838;BME280;65998;46.256;7.534;2022-12-18T19:01:18;87824.91;;;-0.39;100.00
43838;BME280;65998;46.256;7.534;2022-12-18T19:03:45;87822.75;;;-0.43;100.00
43838;BME280;65998;46.256;7.534;2022-12-18T19:06:17;87824.84;;;-0.41;100.00
43838;BME280;65998;46.256;7.534;2022-12-18T19:08:44;87828.19;;;-0.25;100.00
43838;BME280;65998;46.256;7.534;2022-12-18T19:11:12;87831.44;;;-0.28;82.60
43838;BME280;65998;46.256;7.534;2022-12-18T19:13:58;87839.78;;;-0.22;94.71
43838;BME280;65998;46.256;7.534;2022-12-18T19:16:25;87837.59;;;-0.26;98.09
43838;BME280;65998;46.256;7.534;2022-12-18T19:18:53;87845.53;;;-0.30;87.33
43838;BME280;65998;46.256;7.534;2022-12-18T19:21:20;87847.47;;;-0.33;96.35
43838;BME280;65998;46.256;7.534;2022-12-18T19:23:46;87841.91;;;-0.37;100.00
43838;BME280;65998;46.256;7.534;2022-12-18T19:26:14;87840.66;;;-0.34;100.00
43838;BME280;65998;46.256;7.534;2022-12-18T19:28:40;87843.69;;;-0.25;100.00
43838;BME280;65998;46.256;7.534;2022-12-18T19:31:08;87838.84;;;-0.29;100.00
43838;BME280;65998;46.256;7.534;2022-12-18T19:33:38;87839.78;;;-0.22;100.00
43838;BME280;65998;46.256;7.534;2022-12-18T19:36:16;87827.75;;;-0.19;100.00
43838;BME280;65998;46.256;7.534;2022-12-18T19:38:43;87837.00;;;-0.24;100.00
43838;BME280;65998;46.256;7.534;2022-12-18T19:41:09;87836.41;;;-0.39;100.00
43838;BME280;65998;46.256;7.534;2022-12-18T19:43:36;87828.31;;;-0.39;100.00
43838;BME280;65998;46.256;7.534;2022-12-18T19:46:04;87829.88;;;-0.34;100.00
43838;BME280;65998;46.256;7.534;2022-12-18T19:48:31;87826.88;;;-0.24;100.00
43838;BME280;65998;46.256;7.534;2022-12-18T19:50:57;87822.78;;;-0.25;100.00
43838;BME280;65998;46.256;7.534;2022-12-18T19:53:24;87830.38;;;-0.21;100.00
43838;BME280;65998;46.256;7.534;2022-12-18T19:55:49;87823.69;;;-0.36;96.27
43838;BME280;65998;46.256;7.534;2022-12-18T19:58:16;87840.03;;;-0.16;100.00
43838;BME280;65998;46.256;7.534;2022-12-18T20:00:41;87841.56;;;-0.11;100.00
43838;BME280;65998;46.256;7.534;2022-12-18T20:03:08;87837.88;;;-0.02;100.00
43838;BME280;65998;46.256;7.534;2022-12-18T20:05:33;87841.34;;;0.16;100.00
43838;BME280;65998;46.256;7.534;2022-12-18T20:08:00;87826.50;;;0.17;100.00
43838;BME280;65998;46.256;7.534;2022-12-18T20:10:25;87831.00;;;0.28;100.00
43838;BME280;65998;46.256;7.534;2022-12-18T20:12:51;87820.03;;;0.42;94.42
43838;BME280;65998;46.256;7.534;2022-12-18T20:15:17;87815.94;;;0.41;100.00
43838;BME280;65998;46.256;7.534;2022-12-18T20:17:43;87822.34;;;0.50;100.00
43838;BME280;65998;46.256;7.534;2022-12-18T20:20:09;87817.56;;;0.48;100.00
43838;BME280;65998;46.256;7.534;2022-12-18T20:22:36;87819.63;;;0.50;100.00
43838;BME280;65998;46.256;7.534;2022-12-18T20:25:02;87821.63;;;0.67;100.00
43838;BME280;65998;46.256;7.534;2022-12-18T20:27:28;87815.47;;;0.47;82.99
43838;BME280;65998;46.256;7.534;2022-12-18T20:29:54;87814.69;;;0.44;70.51
43838;BME280;65998;46.256;7.534;2022-12-18T20:32:20;87822.25;;;0.48;68.49
43838;BME280;65998;46.256;7.534;2022-12-18T20:34:46;87815.63;;;0.51;65.68
43838;BME280;65998;46.256;7.534;2022-12-18T20:37:12;87815.16;;;0.56;64.81
43838;BME280;65998;46.256;7.534;2022-12-18T20:39:38;87823.41;;;0.60;64.32
43838;BME280;65998;46.256;7.534;2022-12-18T20:42:04;87818.22;;;0.67;62.02
43838;BME280;65998;46.256;7.534;2022-12-18T20:44:30;87815.13;;;0.74;59.47
43838;BME280;65998;46.256;7.534;2022-12-18T20:46:57;87818.84;;;0.83;61.23
43838;BME280;65998;46.256;7.534;2022-12-18T20:49:26;87825.84;;;0.90;58.81
43838;BME280;65998;46.256;7.534;2022-12-18T20:51:54;87816.50;;;0.93;61.17
43838;BME280;65998;46.256;7.534;2022-12-18T20:54:22;87813.03;;;0.90;60.21
43838;BME280;65998;46.256;7.534;2022-12-18T20:56:49;87814.78;;;1.02;60.89
43838;BME280;65998;46.256;7.534;2022-12-18T20:59:16;87814.63;;;0.98;62.24
43838;BME280;65998;46.256;7.534;2022-12-18T21:01:42;87810.31;;;0.90;60.61
43838;BME280;65998;46.256;7.534;2022-12-18T21:04:08;87813.31;;;0.99;62.34
43838;BME280;65998;46.256;7.534;2022-12-18T21:06:35;87821.50;;;1.01;55.24
43838;BME280;65998;46.256;7.534;2022-12-18T21:09:01;87827.84;;;1.07;60.52
43838;BME280;65998;46.256;7.534;2022-12-18T21:11:30;87820.66;;;1.14;71.18
43838;BME280;65998;46.256;7.534;2022-12-18T21:14:22;87817.59;;;1.23;75.61
43838;BME280;65998;46.256;7.534;2022-12-18T21:16:50;87817.06;;;1.27;89.86
43838;BME280;65998;46.256;7.534;2022-12-18T21:19:18;87817.75;;;1.27;100.00
43838;BME280;65998;46.256;7.534;2022-12-18T21:21:45;87816.84;;;1.21;100.00
43838;BME280;65998;46.256;7.534;2022-12-18T21:24:12;87818.09;;;1.18;100.00
43838;BME280;65998;46.256;7.534;2022-12-18T21:26:38;87817.25;;;1.13;100.00
43838;BME280;65998;46.256;7.534;2022-12-18T21:29:06;87816.16;;;1.03;100.00
43838;BME280;65998;46.256;7.534;2022-12-18T21:31:34;87799.09;;;0.98;97.20
43838;BME280;65998;46.256;7.534;2022-12-18T21:34:02;87793.69;;;0.98;87.88
43838;BME280;65998;46.256;7.534;2022-12-18T21:36:29;87809.84;;;0.96;86.53
43838;BME280;65998;46.256;7.534;2022-12-18T21:38:57;87827.31;;;1.11;81.59
43838;BME280;65998;46.256;7.534;2022-12-18T21:41:23;87821.97;;;1.13;98.69
43838;BME280;65998;46.256;7.534;2022-12-18T21:44:14;87825.22;;;1.09;100.00
43838;BME280;65998;46.256;7.534;2022-12-18T21:46:43;87829.31;;;1.10;83.85
43838;BME280;65998;46.256;7.534;2022-12-18T21:49:10;87831.53;;;1.16;100.00
43838;BME280;65998;46.256;7.534;2022-12-18T21:51:37;87823.97;;;1.12;82.43
43838;BME280;65998;46.256;7.534;2022-12-18T21:54:03;87824.06;;;1.14;73.48
43838;BME280;65998;46.256;7.534;2022-12-18T21:59:17;87808.94;;;1.27;64.56
43838;BME280;65998;46.256;7.534;2022-12-18T22:01:43;87809.97;;;1.38;62.17
43838;BME280;65998;46.256;7.534;2022-12-18T22:04:10;87812.28;;;1.45;61.89
43838;BME280;65998;46.256;7.534;2022-12-18T22:06:36;87802.41;;;1.54;65.75
43838;BME280;65998;46.256;7.534;2022-12-18T22:09:03;87818.78;;;1.58;97.22
43838;BME280;65998;46.256;7.534;2022-12-18T22:11:29;87814.91;;;1.43;80.22
43838;BME280;65998;46.256;7.534;2022-12-18T22:13:55;87815.03;;;1.47;100.00
43838;BME280;65998;46.256;7.534;2022-12-18T22:16:21;87822.91;;;1.59;100.00
43838;BME280;65998;46.256;7.534;2022-12-18T22:18:47;87812.75;;;1.59;83.86
43838;BME280;65998;46.256;7.534;2022-12-18T22:21:26;87822.47;;;1.67;92.08
43838;BME280;65998;46.256;7.534;2022-12-18T22:24:00;87822.13;;;1.56;96.20
43838;BME280;65998;46.256;7.534;2022-12-18T22:26:28;87817.41;;;1.57;85.33
43838;BME280;65998;46.256;7.534;2022-12-18T22:28:55;87817.34;;;1.55;76.27
43838;BME280;65998;46.256;7.534;2022-12-18T22:31:39;87816.22;;;1.62;88.51
43838;BME280;65998;46.256;7.534;2022-12-18T22:34:06;87809.75;;;1.71;80.64
43838;BME280;65998;46.256;7.534;2022-12-18T22:36:37;87816.50;;;1.70;100.00
43838;BME280;65998;46.256;7.534;2022-12-18T22:39:10;87816.91;;;1.63;100.00
43838;BME280;65998;46.256;7.534;2022-12-18T22:41:36;87819.41;;;1.56;100.00
43838;BME280;65998;46.256;7.534;2022-12-18T22:44:02;87815.38;;;1.38;71.75
43838;BME280;65998;46.256;7.534;2022-12-18T22:46:31;87823.59;;;1.40;69.17
43838;BME280;65998;46.256;7.534;2022-12-18T22:48:58;87820.59;;;1.51;99.13
43838;BME280;65998;46.256;7.534;2022-12-18T22:51:24;87808.84;;;1.65;100.00
43838;BME280;65998;46.256;7.534;2022-12-18T22:53:50;87813.72;;;1.68;91.99
43838;BME280;65998;46.256;7.534;2022-12-18T22:56:16;87814.97;;;1.65;100.00
43838;BME280;65998;46.256;7.534;2022-12-18T22:58:42;87822.97;;;1.61;100.00
43838;BME280;65998;46.256;7.534;2022-12-18T23:01:21;87810.94;;;1.66;100.00
43838;BME280;65998;46.256;7.534;2022-12-18T23:03:47;87798.34;;;1.75;100.00
43838;BME280;65998;46.256;7.534;2022-12-18T23:06:15;87803.41;;;1.84;100.00
43838;BME280;65998;46.256;7.534;2022-12-18T23:08:41;87802.84;;;1.88;100.00
43838;BME280;65998;46.256;7.534;2022-12-18T23:11:09;87804.81;;;1.85;100.00
43838;BME280;65998;46.256;7.534;2022-12-18T23:13:35;87799.31;;;1.83;100.00
43838;BME280;65998;46.256;7.534;2022-12-18T23:16:11;87805.84;;;1.96;100.00
43838;BME280;65998;46.256;7.534;2022-12-18T23:18:37;87800.16;;;1.88;100.00
43838;BME280;65998;46.256;7.534;2022-12-18T23:21:05;87808.53;;;1.96;100.00
43838;BME280;65998;46.256;7.534;2022-12-18T23:23:33;87804.25;;;1.89;100.00
43838;BME280;65998;46.256;7.534;2022-12-18T23:26:05;87802.94;;;1.90;100.00
43838;BME280;65998;46.256;7.534;2022-12-18T23:28:33;87804.25;;;1.89;100.00
43838;BME280;65998;46.256;7.534;2022-12-18T23:31:14;87795.16;;;1.80;100.00
43838;BME280;65998;46.256;7.534;2022-12-18T23:33:40;87799.25;;;1.81;100.00
43838;BME280;65998;46.256;7.534;2022-12-18T23:36:07;87795.41;;;1.88;100.00
43838;BME280;65998;46.256;7.534;2022-12-18T23:38:33;87796.75;;;1.87;100.00
43838;BME280;65998;46.256;7.534;2022-12-18T23:41:08;87799.38;;;1.85;100.00
43838;BME280;65998;46.256;7.534;2022-12-18T23:43:35;87791.94;;;1.86;100.00
43838;BME280;65998;46.256;7.534;2022-12-18T23:46:01;87796.50;;;2.01;100.00
43838;BME280;65998;46.256;7.534;2022-12-18T23:48:27;87798.91;;;1.91;100.00
43838;BME280;65998;46.256;7.534;2022-12-18T23:50:53;87802.13;;;2.07;100.00
43838;BME280;65998;46.256;7.534;2022-12-18T23:53:19;87796.84;;;2.11;100.00
43838;BME280;65998;46.256;7.534;2022-12-18T23:55:45;87786.94;;;1.98;100.00
43838;BME280;65998;46.256;7.534;2022-12-18T23:58:16;87795.88;;;2.03;100.00
